createdAt,value
2022-09-01T00:00:32.578Z,11.35
2022-09-01T00:03:01.873Z,11.38
2022-09-01T00:05:41.921Z,11.32
2022-09-01T00:08:11.157Z,11.16
2022-09-01T00:10:45.937Z,11.01
2022-09-01T00:13:17.167Z,10.95
2022-09-01T00:15:51.534Z,10.86
2022-09-01T00:18:25.706Z,10.98
2022-09-01T00:20:58.766Z,11.02
2022-09-01T00:23:28.360Z,11.12
2022-09-01T00:25:58.309Z,11.03
2022-09-01T00:28:30.420Z,11.14
2022-09-01T00:31:00.430Z,11.14
2022-09-01T00:33:29.846Z,11.17
2022-09-01T00:35:59.592Z,11.21
2022-09-01T00:38:29.521Z,11.23
2022-09-01T00:41:00.393Z,11.21
2022-09-01T00:43:44.034Z,11.16
2022-09-01T00:46:18.445Z,11.21
2022-09-01T00:48:54.944Z,11.17
2022-09-01T00:51:25.812Z,11.26
2022-09-01T00:53:55.619Z,11.19
2022-09-01T00:56:25.765Z,11.15
2022-09-01T00:58:56.958Z,11.00
2022-09-01T01:01:26.307Z,10.87
2022-09-01T01:04:02.514Z,10.73
2022-09-01T01:06:32.597Z,10.67
2022-09-01T01:09:03.103Z,10.70
2022-09-01T01:11:34.153Z,10.76
2022-09-01T01:14:10.169Z,10.53
2022-09-01T01:16:44.692Z,10.71
2022-09-01T01:19:41.273Z,10.64
2022-09-01T01:22:49.323Z,10.59
2022-09-01T01:25:22.115Z,10.65
2022-09-01T01:27:51.743Z,10.64
2022-09-01T01:30:23.338Z,10.66
2022-09-01T01:32:55.586Z,10.63
2022-09-01T01:35:31.689Z,10.66
2022-09-01T01:38:01.679Z,10.68
2022-09-01T01:40:32.971Z,10.63
2022-09-01T01:43:03.401Z,10.52
2022-09-01T01:45:39.652Z,10.44
2022-09-01T01:48:10.181Z,10.29
2022-09-01T01:50:51.246Z,10.21
2022-09-01T01:53:21.569Z,9.97
2022-09-01T01:55:53.109Z,10.08
2022-09-01T01:58:35.543Z,10.10
2022-09-01T02:01:12.205Z,10.07
2022-09-01T02:03:42.256Z,10.04
2022-09-01T02:06:13.681Z,9.98
2022-09-01T02:08:43.941Z,10.04
2022-09-01T02:11:16.965Z,10.08
2022-09-01T02:13:49.280Z,10.12
2022-09-01T02:16:20.655Z,10.12
2022-09-01T02:18:50.874Z,10.04
2022-09-01T02:21:28.705Z,10.03
2022-09-01T02:24:01.796Z,10.21
2022-09-01T02:26:39.160Z,10.22
2022-09-01T02:29:17.459Z,10.24
2022-09-01T02:31:48.752Z,10.27
2022-09-01T02:34:18.604Z,10.24
2022-09-01T02:36:50.523Z,10.29
2022-09-01T02:39:29.109Z,10.28
2022-09-01T02:42:01.204Z,10.31
2022-09-01T02:44:32.295Z,10.31
2022-09-01T02:47:05.195Z,10.27
2022-09-01T02:49:36.745Z,10.25
2022-09-01T02:52:06.040Z,10.16
2022-09-01T02:54:35.924Z,10.10
2022-09-01T02:57:18.142Z,10.11
2022-09-01T02:59:47.991Z,10.04
2022-09-01T03:02:17.028Z,10.03
2022-09-01T03:04:50.119Z,10.06
2022-09-01T03:07:23.522Z,10.13
2022-09-01T03:09:52.924Z,10.13
2022-09-01T03:12:24.102Z,10.21
2022-09-01T03:14:53.429Z,10.06
2022-09-01T03:17:22.564Z,10.13
2022-09-01T03:19:51.747Z,10.29
2022-09-01T03:22:22.452Z,10.35
2022-09-01T03:24:51.727Z,10.38
2022-09-01T03:27:20.830Z,10.38
2022-09-01T03:32:32.878Z,10.47
2022-09-01T03:35:09.066Z,10.49
2022-09-01T03:37:39.175Z,10.48
2022-09-01T03:40:10.899Z,10.52
2022-09-01T03:42:41.272Z,10.57
2022-09-01T03:45:15.853Z,10.58
2022-09-01T03:47:46.738Z,10.59
2022-09-01T03:50:23.008Z,10.63
2022-09-01T03:52:56.273Z,10.60
2022-09-01T03:55:33.968Z,10.67
2022-09-01T03:58:10.011Z,10.68
2022-09-01T04:00:50.040Z,10.69
2022-09-01T04:03:28.575Z,10.64
2022-09-01T04:05:58.711Z,10.57
2022-09-01T04:08:33.068Z,10.45
2022-09-01T04:11:05.649Z,10.53
2022-09-01T04:13:41.368Z,10.54
2022-09-01T04:16:36.941Z,10.66
2022-09-01T04:19:15.417Z,10.71
2022-09-01T04:21:45.642Z,10.75
2022-09-01T04:24:18.501Z,10.77
2022-09-01T04:26:49.988Z,10.81
2022-09-01T04:29:27.072Z,10.75
2022-09-01T04:32:02.233Z,10.75
2022-09-01T04:34:36.790Z,10.76
2022-09-01T04:37:10.635Z,10.83
2022-09-01T04:39:50.356Z,10.88
2022-09-01T04:42:32.042Z,10.78
2022-09-01T04:45:10.484Z,11.10
2022-09-01T04:47:46.286Z,11.15
2022-09-01T04:50:21.708Z,11.20
2022-09-01T04:53:11.699Z,11.15
2022-09-01T04:55:45.776Z,10.92
2022-09-01T04:58:25.377Z,10.81
2022-09-01T05:00:56.218Z,10.68
2022-09-01T05:03:31.788Z,10.69
2022-09-01T05:06:33.319Z,10.54
2022-09-01T05:09:02.721Z,10.57
2022-09-01T05:11:51.393Z,10.59
2022-09-01T05:14:25.994Z,10.64
2022-09-01T05:16:59.910Z,10.70
2022-09-01T05:19:32.385Z,10.71
2022-09-01T05:22:04.286Z,10.72
2022-09-01T05:24:43.238Z,10.81
2022-09-01T05:27:14.770Z,10.95
2022-09-01T05:29:46.893Z,10.99
2022-09-01T05:32:17.209Z,10.88
2022-09-01T05:34:54.468Z,10.91
2022-09-01T05:37:23.733Z,10.95
2022-09-01T05:39:53.228Z,11.07
2022-09-01T05:42:32.239Z,11.28
2022-09-01T05:45:01.753Z,11.51
2022-09-01T05:47:37.101Z,11.65
2022-09-01T05:50:14.330Z,11.93
2022-09-01T05:52:45.277Z,12.13
2022-09-01T05:55:14.929Z,11.99
2022-09-01T05:57:52.772Z,11.77
2022-09-01T06:00:22.286Z,11.59
2022-09-01T06:02:53.219Z,11.51
2022-09-01T06:05:26.668Z,11.53
2022-09-01T06:07:57.064Z,11.59
2022-09-01T06:10:26.719Z,11.63
2022-09-01T06:12:56.191Z,11.75
2022-09-01T06:15:29.056Z,11.65
2022-09-01T06:18:04.957Z,11.62
2022-09-01T06:20:41.324Z,11.65
2022-09-01T06:23:17.015Z,11.80
2022-09-01T06:28:32.476Z,11.80
2022-09-01T06:31:03.403Z,11.72
2022-09-01T06:33:33.193Z,11.62
2022-09-01T06:36:05.829Z,11.57
2022-09-01T06:38:35.790Z,11.64
2022-09-01T06:41:12.438Z,11.77
2022-09-01T06:43:43.551Z,11.83
2022-09-01T06:46:12.910Z,11.94
2022-09-01T06:48:46.265Z,12.15
2022-09-01T06:51:22.003Z,12.43
2022-09-01T06:54:01.711Z,12.69
2022-09-01T06:59:34.679Z,12.78
2022-09-01T07:08:21.554Z,13.32
2022-09-01T07:14:17.691Z,13.12
2022-09-01T07:19:48.290Z,12.60
2022-09-01T07:22:35.848Z,12.60
2022-09-01T07:25:11.815Z,12.46
2022-09-01T07:28:01.094Z,12.26
2022-09-01T07:30:31.250Z,12.15
2022-09-01T07:39:57.368Z,12.94
2022-09-01T07:42:57.099Z,12.73
2022-09-01T07:44:49.989Z,12.22
2022-09-01T07:47:53.578Z,12.32
2022-09-01T07:50:40.420Z,12.47
2022-09-01T07:53:12.017Z,12.96
2022-09-01T07:55:44.078Z,13.29
2022-09-01T07:58:16.079Z,13.35
2022-09-01T08:00:49.486Z,13.05
2022-09-01T08:03:22.474Z,12.96
2022-09-01T08:05:56.120Z,12.70
2022-09-01T08:08:29.006Z,12.46
2022-09-01T08:13:42.197Z,12.40
2022-09-01T08:16:18.047Z,12.40
2022-09-01T08:18:49.994Z,12.64
2022-09-01T08:21:26.297Z,12.99
2022-09-01T08:24:01.673Z,13.17
2022-09-01T08:26:32.845Z,13.45
2022-09-01T08:29:10.080Z,13.58
2022-09-01T08:31:43.762Z,13.57
2022-09-01T08:34:13.392Z,13.49
2022-09-01T08:36:42.723Z,13.53
2022-09-01T08:39:13.092Z,13.86
2022-09-01T08:41:53.856Z,13.94
2022-09-01T08:44:40.685Z,14.04
2022-09-01T08:47:15.327Z,14.08
2022-09-01T08:49:47.637Z,13.87
2022-09-01T08:52:29.701Z,13.56
2022-09-01T08:55:14.350Z,13.47
2022-09-01T08:57:47.957Z,13.45
2022-09-01T09:00:27.733Z,13.57
2022-09-01T09:03:12.990Z,13.48
2022-09-01T09:06:06.754Z,13.70
2022-09-01T09:08:59.687Z,13.48
2022-09-01T09:12:04.349Z,13.33
2022-09-01T09:14:52.577Z,13.17
2022-09-01T09:17:31.852Z,13.02
2022-09-01T09:20:02.950Z,12.92
2022-09-01T09:22:39.017Z,13.00
2022-09-01T09:25:19.199Z,13.01
2022-09-01T09:27:50.349Z,13.18
2022-09-01T09:30:32.757Z,13.26
2022-09-01T09:36:19.143Z,13.64
2022-09-01T09:39:11.617Z,13.80
2022-09-01T09:41:42.672Z,13.59
2022-09-01T09:44:29.276Z,13.60
2022-09-01T09:46:59.278Z,13.43
2022-09-01T09:49:36.359Z,13.35
2022-09-01T09:52:24.230Z,13.22
2022-09-01T09:55:05.549Z,12.92
2022-09-01T09:57:41.395Z,12.87
2022-09-01T10:00:24.075Z,12.88
2022-09-01T10:02:57.614Z,12.75
2022-09-01T10:05:43.292Z,12.64
2022-09-01T10:08:19.116Z,12.46
2022-09-01T10:10:57.545Z,12.41
2022-09-01T10:13:35.192Z,12.57
2022-09-01T10:16:10.320Z,12.88
2022-09-01T10:18:44.368Z,13.17
2022-09-01T10:21:21.212Z,13.21
2022-09-01T10:23:50.877Z,13.14
2022-09-01T10:26:25.636Z,13.01
2022-09-01T10:29:00.768Z,12.86
2022-09-01T10:31:32.621Z,12.93
2022-09-01T10:34:05.898Z,12.92
2022-09-01T10:36:47.573Z,13.00
2022-09-01T10:39:28.683Z,13.23
2022-09-01T10:42:07.211Z,13.44
2022-09-01T10:44:38.556Z,13.41
2022-09-01T10:47:14.507Z,13.45
2022-09-01T10:50:01.235Z,13.62
2022-09-01T10:53:04.697Z,13.55
2022-09-01T10:55:47.039Z,13.35
2022-09-01T11:02:23.004Z,13.45
2022-09-01T11:05:18.983Z,13.57
2022-09-01T11:08:15.037Z,13.86
2022-09-01T11:11:00.578Z,14.00
2022-09-01T11:13:39.227Z,13.88
2022-09-01T11:16:49.624Z,13.84
2022-09-01T11:19:37.165Z,13.93
2022-09-01T11:22:26.475Z,14.19
2022-09-01T11:25:40.837Z,14.27
2022-09-01T11:28:41.170Z,14.24
2022-09-01T11:31:31.686Z,14.11
2022-09-01T11:34:12.693Z,13.90
2022-09-01T11:36:53.819Z,13.55
2022-09-01T11:39:41.327Z,13.61
2022-09-01T11:42:15.272Z,13.32
2022-09-01T11:44:51.498Z,13.51
2022-09-01T11:47:30.675Z,13.76
2022-09-01T11:50:02.947Z,14.12
2022-09-01T11:52:41.065Z,14.14
2022-09-01T11:55:17.204Z,14.28
2022-09-01T11:57:46.673Z,14.29
2022-09-01T12:00:29.442Z,14.42
2022-09-01T12:02:59.714Z,14.26
2022-09-01T12:05:39.757Z,13.98
2022-09-01T12:08:17.269Z,14.00
2022-09-01T12:10:53.126Z,13.96
2022-09-01T12:13:24.310Z,14.25
2022-09-01T12:18:39.374Z,14.54
2022-09-01T12:21:09.996Z,14.57
2022-09-01T12:23:44.940Z,14.47
2022-09-01T12:26:17.583Z,14.42
2022-09-01T12:28:52.894Z,14.30
2022-09-01T12:31:30.398Z,14.05
2022-09-01T12:34:17.402Z,14.04
2022-09-01T12:39:41.079Z,14.25
2022-09-01T12:42:14.844Z,14.19
2022-09-01T12:44:53.336Z,14.32
2022-09-01T12:57:38.567Z,14.30
2022-09-01T13:00:11.366Z,14.04
2022-09-01T13:02:45.678Z,13.96
2022-09-01T13:05:28.416Z,13.99
2022-09-01T13:08:09.538Z,14.19
2022-09-01T13:10:43.230Z,14.22
2022-09-01T13:15:54.178Z,14.40
2022-09-01T13:19:10.348Z,14.14
2022-09-01T13:21:29.884Z,14.28
2022-09-01T13:23:59.121Z,14.37
2022-09-01T13:26:30.823Z,14.51
2022-09-01T13:29:02.615Z,14.55
2022-09-01T13:31:32.282Z,14.47
2022-09-01T13:36:48.117Z,14.44
2022-09-01T13:39:20.369Z,14.30
2022-09-01T13:41:50.020Z,14.23
2022-09-01T13:44:21.284Z,14.20
2022-09-01T13:50:04.683Z,14.20
2022-09-01T13:52:29.415Z,14.15
2022-09-01T13:54:58.566Z,14.18
2022-09-01T13:57:27.889Z,14.25
2022-09-01T14:00:10.607Z,14.30
2022-09-01T14:02:40.618Z,14.26
2022-09-01T14:05:14.853Z,14.34
2022-09-01T14:07:44.146Z,14.29
2022-09-01T14:10:14.168Z,14.20
2022-09-01T14:12:50.464Z,14.19
2022-09-01T14:15:27.123Z,14.20
2022-09-01T14:18:00.546Z,14.28
2022-09-01T14:20:36.141Z,14.18
2022-09-01T14:23:13.347Z,14.07
2022-09-01T14:25:45.692Z,13.96
2022-09-01T14:28:20.563Z,13.82
2022-09-01T14:33:33.744Z,13.70
2022-09-01T14:36:03.202Z,13.45
2022-09-01T14:38:32.619Z,13.26
2022-09-01T14:41:07.026Z,13.22
2022-09-01T14:43:42.660Z,13.22
2022-09-01T14:46:13.920Z,13.13
2022-09-01T14:48:43.584Z,12.93
2022-09-01T14:51:23.342Z,12.81
2022-09-01T14:53:53.445Z,12.71
2022-09-01T14:56:23.361Z,12.62
2022-09-01T14:59:00.035Z,12.55
2022-09-01T15:01:34.664Z,12.50
2022-09-01T15:04:09.722Z,12.36
2022-09-01T15:06:38.806Z,12.13
2022-09-01T15:09:08.600Z,11.92
2022-09-01T15:11:44.065Z,11.66
2022-09-01T15:14:15.288Z,11.56
2022-09-01T15:16:47.197Z,11.58
2022-09-01T15:19:16.927Z,11.32
2022-09-01T15:21:48.265Z,11.46
2022-09-01T15:24:18.200Z,11.45
2022-09-01T15:26:52.647Z,11.41
2022-09-01T15:29:22.077Z,11.46
2022-09-01T15:31:53.267Z,11.57
2022-09-01T15:34:22.595Z,11.57
2022-09-01T15:36:51.757Z,11.49
2022-09-01T15:39:21.073Z,11.38
2022-09-01T15:41:50.483Z,11.23
2022-09-01T15:44:19.637Z,10.94
2022-09-01T15:47:01.134Z,10.86
2022-09-01T15:49:30.352Z,10.74
2022-09-01T15:52:01.859Z,10.58
2022-09-01T15:54:31.356Z,10.51
2022-09-01T15:57:00.622Z,10.38
2022-09-01T15:59:30.150Z,10.39
2022-09-01T16:02:01.654Z,10.26
2022-09-01T16:04:35.314Z,10.52
2022-09-01T16:07:10.572Z,10.58
2022-09-01T16:09:40.211Z,10.59
2022-09-01T16:12:09.725Z,10.65
2022-09-01T16:14:40.127Z,10.75
2022-09-01T16:17:19.468Z,10.72
2022-09-01T16:19:55.605Z,10.56
2022-09-01T16:22:29.393Z,10.47
2022-09-01T16:25:02.694Z,10.43
2022-09-01T16:27:37.525Z,10.27
2022-09-01T16:30:10.143Z,10.35
2022-09-01T16:32:47.558Z,10.13
2022-09-01T16:35:20.885Z,10.17
2022-09-01T16:40:42.390Z,10.26
2022-09-01T16:43:19.640Z,10.24
2022-09-01T16:46:03.447Z,10.26
2022-09-01T16:48:44.853Z,10.21
2022-09-01T16:51:22.474Z,9.96
2022-09-01T16:54:05.383Z,10.10
2022-09-01T16:56:43.212Z,10.05
2022-09-01T16:59:30.040Z,10.09
2022-09-01T17:02:20.418Z,10.05
2022-09-01T17:05:00.529Z,9.77
2022-09-01T17:07:42.448Z,9.96
2022-09-01T17:10:24.454Z,9.77
2022-09-01T17:12:56.498Z,9.62
2022-09-01T17:15:40.375Z,9.82
2022-09-01T17:18:22.459Z,9.78
2022-09-01T17:21:01.680Z,9.77
2022-09-01T17:23:37.681Z,9.85
2022-09-01T17:26:15.433Z,9.97
2022-09-01T17:28:51.644Z,10.13
2022-09-01T17:31:33.845Z,10.23
2022-09-01T17:34:18.344Z,10.23
2022-09-01T17:37:04.484Z,10.33
2022-09-01T17:39:43.867Z,10.34
2022-09-01T17:42:24.682Z,10.31
2022-09-01T17:44:56.768Z,10.22
2022-09-01T17:47:38.438Z,10.12
2022-09-01T17:50:17.896Z,10.08
2022-09-01T17:52:59.695Z,10.11
2022-09-01T17:55:43.610Z,10.12
2022-09-01T17:58:22.285Z,10.13
2022-09-01T18:00:59.802Z,10.18
2022-09-01T18:03:46.871Z,10.27
2022-09-01T18:06:30.010Z,10.27
2022-09-01T18:09:02.094Z,10.29
2022-09-01T18:11:43.174Z,10.18
2022-09-01T18:14:17.244Z,10.11
2022-09-01T18:16:59.029Z,10.00
2022-09-01T18:19:43.668Z,9.84
2022-09-01T18:22:16.736Z,9.75
2022-09-01T18:24:55.067Z,9.67
2022-09-01T18:27:25.514Z,9.54
2022-09-01T18:29:56.973Z,9.51
2022-09-01T18:32:40.521Z,9.55
2022-09-01T18:35:22.517Z,9.54
2022-09-01T18:38:17.837Z,9.55
2022-09-01T18:41:11.655Z,9.35
2022-09-01T18:43:46.768Z,9.32
2022-09-01T18:46:24.784Z,9.45
2022-09-01T18:49:05.522Z,9.49
2022-09-01T18:54:36.302Z,9.28
2022-09-01T18:57:12.317Z,9.14
2022-09-01T19:00:00.040Z,9.13
2022-09-01T19:02:53.683Z,9.23
2022-09-01T19:05:33.493Z,9.21
2022-09-01T19:08:10.679Z,9.18
2022-09-01T19:10:44.792Z,9.21
2022-09-01T19:13:40.582Z,9.38
2022-09-01T19:16:31.371Z,9.50
2022-09-01T19:19:09.735Z,9.49
2022-09-01T19:21:39.110Z,9.51
2022-09-01T19:24:13.267Z,9.58
2022-09-01T19:26:48.114Z,9.76
2022-09-01T19:29:21.183Z,9.90
2022-09-01T19:31:52.920Z,10.01
2022-09-01T19:34:26.508Z,10.08
2022-09-01T19:36:59.238Z,10.07
2022-09-01T19:39:31.781Z,10.04
2022-09-01T19:42:07.608Z,10.01
2022-09-01T19:44:51.337Z,10.00
2022-09-01T19:47:28.137Z,10.00
2022-09-01T19:50:03.147Z,9.86
2022-09-01T19:52:37.838Z,9.78
2022-09-01T19:55:13.886Z,9.71
2022-09-01T19:57:52.041Z,9.52
2022-09-01T20:00:31.488Z,9.27
2022-09-01T20:03:07.306Z,9.15
2022-09-01T20:05:45.904Z,8.95
2022-09-01T20:08:20.929Z,8.77
2022-09-01T20:10:59.496Z,8.76
2022-09-01T20:14:00.145Z,8.77
2022-09-01T20:16:41.267Z,8.70
2022-09-01T20:19:15.734Z,8.68
2022-09-01T20:21:47.289Z,8.79
2022-09-01T20:24:27.728Z,8.73
2022-09-01T20:27:02.151Z,8.64
2022-09-01T20:29:45.266Z,8.54
2022-09-01T20:32:24.068Z,8.69
2022-09-01T20:34:59.508Z,8.61
2022-09-01T20:37:38.962Z,8.64
2022-09-01T20:40:09.847Z,8.49
2022-09-01T20:42:50.187Z,8.42
2022-09-01T20:45:21.750Z,8.45
2022-09-01T20:47:58.064Z,8.49
2022-09-01T20:50:37.982Z,8.52
2022-09-01T20:53:35.177Z,8.54
2022-09-01T20:56:11.097Z,8.79
2022-09-01T21:01:29.227Z,9.01
2022-09-01T21:04:09.951Z,9.05
2022-09-01T21:06:59.190Z,9.08
2022-09-01T21:09:45.170Z,8.95
2022-09-01T21:15:12.930Z,8.89
2022-09-01T21:17:48.859Z,8.83
2022-09-01T21:20:30.485Z,8.65
2022-09-01T21:23:00.438Z,8.73
2022-09-01T21:25:31.022Z,8.84
2022-09-01T21:28:02.866Z,8.88
2022-09-01T21:30:33.535Z,8.96
2022-09-01T21:33:03.961Z,8.73
2022-09-01T21:35:35.371Z,8.60
2022-09-01T21:38:20.960Z,8.42
2022-09-01T21:40:51.311Z,8.21
2022-09-01T21:43:35.070Z,8.13
2022-09-01T21:46:05.063Z,8.02
2022-09-01T21:48:34.414Z,7.89
2022-09-01T21:51:10.735Z,7.87
2022-09-01T21:53:40.057Z,7.84
2022-09-01T21:56:09.544Z,7.81
2022-09-01T21:58:39.629Z,7.62
2022-09-01T22:01:10.642Z,7.68
2022-09-01T22:03:48.660Z,7.60
2022-09-01T22:06:20.721Z,7.53
2022-09-01T22:08:50.020Z,7.55
2022-09-01T22:11:22.957Z,7.53
2022-09-01T22:13:52.230Z,7.51
2022-09-01T22:16:22.759Z,7.49
2022-09-01T22:18:53.333Z,7.58
2022-09-01T22:21:24.576Z,7.53
2022-09-01T22:23:53.945Z,7.51
2022-09-01T22:26:26.880Z,7.60
2022-09-01T22:28:57.289Z,7.54
2022-09-01T22:31:28.545Z,7.65
2022-09-01T22:33:58.012Z,7.77
2022-09-01T22:36:31.730Z,7.86
2022-09-01T22:39:01.283Z,7.90
2022-09-01T22:41:32.584Z,7.98
2022-09-01T22:44:02.319Z,8.09
2022-09-01T22:46:32.171Z,8.16
2022-09-01T22:49:14.451Z,8.20
2022-09-01T22:51:50.785Z,8.27
2022-09-01T22:54:20.534Z,8.34
2022-09-01T22:56:49.673Z,8.35
2022-09-01T22:59:18.846Z,8.37
2022-09-01T23:01:50.945Z,8.37
2022-09-01T23:04:20.727Z,8.44
2022-09-01T23:06:55.743Z,8.48
2022-09-01T23:09:25.046Z,8.50
2022-09-01T23:11:54.241Z,8.53
2022-09-01T23:14:23.527Z,8.50
2022-09-01T23:16:52.865Z,8.44
2022-09-01T23:19:23.469Z,8.42
2022-09-01T23:22:06.771Z,8.48
2022-09-01T23:24:53.443Z,8.40
2022-09-01T23:27:22.688Z,8.36
2022-09-01T23:29:52.257Z,8.38
2022-09-01T23:32:21.575Z,8.37
2022-09-01T23:34:56.946Z,8.40
2022-09-01T23:37:28.679Z,8.34
2022-09-01T23:40:03.387Z,8.31
2022-09-01T23:42:38.154Z,8.35
2022-09-01T23:45:13.506Z,8.26
2022-09-01T23:47:43.036Z,8.21
2022-09-01T23:50:12.906Z,8.19
2022-09-01T23:52:44.951Z,8.28
2022-09-01T23:55:13.910Z,8.36
2022-09-01T23:57:42.979Z,8.27
